Time;durP1;ratioP1;P1;durP2;ratioP2;P2;SDS_P1;SDS_P2;PMS_P1;PMS_P2;Temp;Humidity;BMP_temperature;BMP_pressure;BME280_temperature;BME280_humidity;BME280_pressure;Samples;Min_cycle;Max_cycle;Signal;HPM_P1;HPM_P2
2022/11/01 20:13:12;;;;;;;7.47;1.55;;;;;;;16.26;72.77;99601.09;5051583;28;20189;-92
2022/11/01 20:15:38;;;;;;;8.85;1.63;;;;;;;16.45;71.60;99613.25;5015382;28;20070;-92
2022/11/01 20:18:04;;;;;;;13.45;2.45;;;;;;;14.88;77.71;99613.28;4946637;28;20032;-92
2022/11/01 20:20:30;;;;;;;10.45;1.88;;;;;;;13.82;84.38;99612.88;4959764;28;20024;-92
2022/11/01 20:22:56;;;;;;;9.55;1.75;;;;;;;13.91;86.35;99605.91;4953577;28;20023;-91
2022/11/01 20:25:23;;;;;;;10.80;1.60;;;;;;;13.42;88.80;99616.59;4955574;28;20086;-92
2022/11/01 20:27:50;;;;;;;9.25;1.50;;;;;;;13.36;96.12;99623.25;4958204;28;20031;-92
2022/11/01 20:30:16;;;;;;;9.07;1.48;;;;;;;13.57;96.51;99631.00;4959459;28;20111;-93
2022/11/01 20:32:41;;;;;;;16.33;2.53;;;;;;;13.83;94.87;99639.13;4960360;28;20550;-93
2022/11/01 20:35:11;;;;;;;10.75;1.42;;;;;;;13.69;97.84;99652.78;4959894;28;20110;-92
2022/11/01 20:37:37;;;;;;;7.40;1.17;;;;;;;13.32;100.00;99650.88;4958710;28;20090;-92
2022/11/01 20:40:04;;;;;;;10.23;1.45;;;;;;;13.41;100.00;99662.41;4954241;28;20039;-93
2022/11/01 20:42:30;;;;;;;6.63;1.48;;;;;;;13.10;100.00;99658.06;4957032;28;20028;-94
2022/11/01 20:44:55;;;;;;;8.32;1.30;;;;;;;12.94;100.00;99678.88;4958766;28;20081;-95
2022/11/01 20:47:26;;;;;;;6.95;1.27;;;;;;;13.00;100.00;99680.97;4956141;28;20382;-94
2022/11/01 20:49:53;;;;;;;8.23;1.38;;;;;;;13.12;100.00;99680.84;4952220;28;20031;-92
2022/11/01 20:52:18;;;;;;;9.70;1.02;;;;;;;13.45;100.00;99687.53;4951072;28;20035;-93
2022/11/01 20:54:44;;;;;;;10.25;1.30;;;;;;;13.35;100.00;99684.91;4957328;28;20027;-93
2022/11/01 20:57:10;;;;;;;10.95;1.38;;;;;;;13.54;100.00;99688.47;4953916;28;20020;-93
2022/11/01 20:59:35;;;;;;;9.48;1.50;;;;;;;13.56;100.00;99694.44;4954161;28;20032;-93
2022/11/01 21:02:02;;;;;;;10.13;1.55;;;;;;;13.86;100.00;99675.78;4953976;28;20031;-92
2022/11/01 21:04:28;;;;;;;8.15;1.55;;;;;;;12.65;100.00;99708.63;4943346;28;20028;-93
2022/11/01 21:06:54;;;;;;;7.53;1.45;;;;;;;13.60;100.00;99701.91;4943148;28;20051;-92
2022/11/01 21:09:29;;;;;;;10.00;1.35;;;;;;;13.63;100.00;99706.09;4941501;28;20028;-93
2022/11/01 21:11:55;;;;;;;14.10;1.17;;;;;;;13.74;100.00;99692.72;4944319;28;20074;-95
2022/11/01 21:14:21;;;;;;;6.07;1.73;;;;;;;13.80;100.00;99702.75;4946955;29;20059;-94
2022/11/01 21:16:47;;;;;;;7.68;1.33;;;;;;;13.79;100.00;99711.63;4947686;29;20447;-93
2022/11/01 21:19:22;;;;;;;11.57;2.30;;;;;;;13.43;100.00;99729.84;4946121;28;20023;-90
2022/11/01 21:21:55;;;;;;;11.63;1.77;;;;;;;13.83;100.00;99742.03;4954611;28;20042;-91
2022/11/01 21:24:33;;;;;;;9.43;1.48;;;;;;;13.98;100.00;99760.06;4949309;28;20047;-92
2022/11/01 21:27:10;;;;;;;12.02;1.55;;;;;;;13.94;100.00;99771.88;4931420;28;20054;-93
2022/11/01 21:29:41;;;;;;;11.68;1.85;;;;;;;14.15;100.00;99764.59;4937068;29;20028;-93
2022/11/01 21:32:38;;;;;;;6.70;1.80;;;;;;;13.99;100.00;99761.72;4926938;29;20044;-92
2022/11/01 21:35:21;;;;;;;7.22;1.33;;;;;;;13.69;100.00;99763.56;4935549;29;20070;-93
2022/11/01 21:37:53;;;;;;;7.13;1.40;;;;;;;13.86;100.00;99770.78;4952371;29;20133;-92
2022/11/01 21:40:26;;;;;;;14.63;1.80;;;;;;;13.33;100.00;99778.28;4951085;29;20034;-92
2022/11/01 21:42:53;;;;;;;7.63;2.22;;;;;;;13.50;100.00;99774.94;4934977;29;20115;-92
2022/11/01 21:45:32;;;;;;;7.45;1.30;;;;;;;12.76;100.00;99775.38;4935488;29;20475;-94
2022/11/01 21:48:27;;;;;;;15.77;2.22;;;;;;;12.93;100.00;99797.59;4937361;29;20039;-93
2022/11/01 21:50:53;;;;;;;11.75;1.80;;;;;;;12.69;100.00;99785.59;4935160;29;20046;-96
2022/11/01 21:53:18;;;;;;;9.40;1.20;;;;;;;13.19;100.00;99804.03;4941022;29;20024;-96
2022/11/01 21:55:45;;;;;;;11.73;1.35;;;;;;;12.83;100.00;99808.91;4945756;29;20040;-94
2022/11/01 21:58:10;;;;;;;7.40;1.00;;;;;;;12.80;100.00;99818.91;4949508;29;20118;-94
2022/11/01 22:00:36;;;;;;;9.05;1.20;;;;;;;13.10;100.00;99847.84;4947695;29;20110;-94
2022/11/01 22:03:01;;;;;;;10.90;1.23;;;;;;;13.32;100.00;99840.72;4948389;29;20027;-94
2022/11/01 22:08:50;;;;;;;7.25;1.10;;;;;;;13.15;100.00;99849.25;4935827;29;20064;-94
2022/11/01 22:11:27;;;;;;;8.50;1.00;;;;;;;13.61;100.00;99863.69;4937215;29;20032;-96
2022/11/01 22:14:34;;;;;;;15.98;1.73;;;;;;;13.71;100.00;99869.78;4946434;29;20131;-94
2022/11/01 22:17:56;;;;;;;11.63;1.45;;;;;;;13.48;100.00;99871.84;4939308;29;20036;-93
2022/11/01 22:20:28;;;;;;;13.52;2.10;;;;;;;13.97;100.00;99883.28;4948559;29;20050;-94
2022/11/01 22:22:53;;;;;;;12.52;1.13;;;;;;;14.20;100.00;99894.41;4954038;29;20057;-92
2022/11/01 22:25:19;;;;;;;17.75;1.38;;;;;;;13.79;100.00;99901.59;4952013;28;20031;-93
2022/11/01 22:27:47;;;;;;;14.07;1.63;;;;;;;14.54;100.00;99907.13;4946713;29;20024;-95
2022/11/01 22:30:13;;;;;;;13.68;1.30;;;;;;;13.82;100.00;99922.44;4936590;29;20118;-94
2022/11/01 22:32:39;;;;;;;8.63;1.70;;;;;;;13.39;100.00;99936.78;4935655;29;20111;-94
2022/11/01 22:35:05;;;;;;;9.80;0.90;;;;;;;14.18;100.00;99940.38;4947245;29;20532;-93
2022/11/01 22:37:33;;;;;;;6.68;1.10;;;;;;;14.05;100.00;99944.13;4954787;28;20559;-92
2022/11/01 22:39:59;;;;;;;7.45;1.20;;;;;;;13.53;100.00;99953.22;4939126;29;20043;-93
2022/11/01 22:42:26;;;;;;;6.50;1.05;;;;;;;13.89;100.00;99959.66;4936517;29;20039;-93
2022/11/01 22:44:51;;;;;;;11.90;1.75;;;;;;;13.12;100.00;99958.44;4945019;29;20042;-94
2022/11/01 22:47:35;;;;;;;7.25;1.17;;;;;;;12.98;100.00;99974.59;4942888;29;20869;-93
2022/11/01 22:50:02;;;;;;;6.35;0.90;;;;;;;13.08;100.00;99980.75;4918250;29;20043;-94
2022/11/01 22:52:33;;;;;;;10.57;1.05;;;;;;;13.04;100.00;99971.44;4945627;29;20043;-94
2022/11/01 22:54:59;;;;;;;6.68;1.08;;;;;;;13.09;100.00;99993.78;4939232;29;20028;-95
2022/11/01 22:57:30;;;;;;;7.70;1.30;;;;;;;12.90;100.00;99993.69;4945663;29;20038;-93
2022/11/01 23:00:20;;;;;;;9.43;1.35;;;;;;;13.03;100.00;99993.47;4933433;29;20038;-94
2022/11/01 23:02:46;;;;;;;7.75;1.23;;;;;;;13.22;100.00;100017.28;4951930;29;20035;-95
2022/11/01 23:05:11;;;;;;;15.43;1.20;;;;;;;13.45;100.00;100020.63;4954255;29;20138;-94
2022/11/01 23:07:41;;;;;;;10.82;1.05;;;;;;;13.47;100.00;100023.16;4933261;28;20128;-94
2022/11/01 23:10:32;;;;;;;6.32;1.30;;;;;;;13.36;100.00;100025.88;4934024;29;20039;-94
2022/11/01 23:15:46;;;;;;;7.88;1.10;;;;;;;13.40;100.00;100032.53;4935639;29;20576;-95
2022/11/01 23:18:16;;;;;;;8.73;1.98;;;;;;;13.64;100.00;100035.69;4933273;29;20035;-94
2022/11/01 23:20:43;;;;;;;14.15;1.75;;;;;;;13.33;100.00;100037.53;4933456;29;20058;-95
2022/11/01 23:23:16;;;;;;;8.98;2.13;;;;;;;13.56;100.00;100042.63;4931532;29;20040;-95
2022/11/01 23:25:42;;;;;;;4.90;0.90;;;;;;;13.54;100.00;100048.00;4945379;29;20035;-93
2022/11/01 23:28:08;;;;;;;17.15;1.90;;;;;;;13.27;100.00;100059.94;4938631;29;20119;-93
2022/11/01 23:30:34;;;;;;;11.73;1.85;;;;;;;13.59;100.00;100055.56;4947455;29;20038;-93
2022/11/01 23:32:59;;;;;;;15.73;3.10;;;;;;;13.26;100.00;100065.34;4939395;29;20425;-94
2022/11/01 23:35:25;;;;;;;10.68;1.38;;;;;;;13.49;100.00;100068.69;4933683;29;20056;-93
2022/11/01 23:37:52;;;;;;;18.92;1.80;;;;;;;13.25;100.00;100061.00;4934226;29;20031;-94
2022/11/01 23:40:20;;;;;;;14.60;1.60;;;;;;;13.57;100.00;100083.88;4931057;29;20027;-94
2022/11/01 23:42:49;;;;;;;22.23;2.40;;;;;;;13.83;100.00;100103.53;4931266;29;20028;-92
2022/11/01 23:45:26;;;;;;;8.43;1.33;;;;;;;13.81;100.00;100105.47;4933772;29;20038;-94
2022/11/01 23:47:52;;;;;;;12.02;1.90;;;;;;;13.81;100.00;100102.84;4933534;29;20490;-94
2022/11/01 23:50:31;;;;;;;9.68;1.65;;;;;;;13.93;100.00;100113.31;4933968;29;20031;-94
2022/11/01 23:52:56;;;;;;;10.75;1.05;;;;;;;13.79;100.00;100123.25;4934113;29;20032;-94
2022/11/01 23:55:36;;;;;;;11.38;1.65;;;;;;;13.64;100.00;100124.56;4933462;29;20565;-94
2022/11/01 23:58:05;;;;;;;8.85;0.98;;;;;;;13.69;100.00;100125.03;4934870;29;20034;-94
